Time;durP1;ratioP1;P1;durP2;ratioP2;P2;SDS_P1;SDS_P2;PMS_P1;PMS_P2;Temp;Humidity;BMP_temperature;BMP_pressure;BME280_temperature;BME280_humidity;BME280_pressure;Samples;Min_cycle;Max_cycle;Signal;HPM_P1;HPM_P2
2023/04/26 00:01:47;;;;;;;5.38;1.58;;;;;;;;;;5009428;28;20034;-70
2023/04/26 00:04:13;;;;;;;9.32;1.80;;;;;;;;;;5009060;28;20029;-71
2023/04/26 00:06:38;;;;;;;2.72;1.20;;;;;;;;;;5008896;28;20021;-70
2023/04/26 00:09:04;;;;;;;3.22;1.13;;;;;;;;;;5007371;28;20018;-70
2023/04/26 00:11:29;;;;;;;7.28;1.70;;;;;;;;;;5003130;28;20069;-70
2023/04/26 00:13:54;;;;;;;6.00;1.52;;;;;;;;;;5012405;28;20054;-70
2023/04/26 00:16:19;;;;;;;3.45;1.40;;;;;;;;;;5013273;28;20018;-70
2023/04/26 00:18:45;;;;;;;5.53;1.55;;;;;;;;;;5012877;28;20101;-71
2023/04/26 00:21:10;;;;;;;10.52;2.28;;;;;;;;;;5012602;28;20025;-69
2023/04/26 00:23:38;;;;;;;5.75;1.50;;;;;;;;;;5012115;28;20017;-67
2023/04/26 00:26:03;;;;;;;6.35;1.63;;;;;;;;;;5012648;28;20037;-70
2023/04/26 00:28:30;;;;;;;5.47;1.55;;;;;;;;;;5013011;28;20383;-71
2023/04/26 00:30:56;;;;;;;7.63;1.70;;;;;;;;;;5008404;28;20010;-71
2023/04/26 00:33:22;;;;;;;6.60;1.60;;;;;;;;;;5006855;28;20056;-70
2023/04/26 00:35:47;;;;;;;6.00;1.48;;;;;;;;;;5007787;28;20514;-69
2023/04/26 00:38:12;;;;;;;2.75;1.20;;;;;;;;;;5006844;28;20029;-70
2023/04/26 00:40:37;;;;;;;6.47;1.42;;;;;;;;;;5012557;28;20037;-68
2023/04/26 00:43:04;;;;;;;4.07;1.65;;;;;;;;;;5011845;28;20022;-69
2023/04/26 00:45:30;;;;;;;2.92;1.48;;;;;;;;;;5012079;28;20052;-68
2023/04/26 00:47:57;;;;;;;7.03;1.80;;;;;;;;;;5008655;28;20018;-70
2023/04/26 00:50:23;;;;;;;4.03;1.63;;;;;;;;;;5012186;28;20030;-70
2023/04/26 00:52:49;;;;;;;4.53;1.92;;;;;;;;;;5012063;28;20329;-71
2023/04/26 00:55:15;;;;;;;5.78;1.52;;;;;;;;;;5012223;28;20025;-70
2023/04/26 00:57:40;;;;;;;7.32;2.28;;;;;;;;;;5012914;28;20033;-67
2023/04/26 01:00:06;;;;;;;9.00;1.90;;;;;;;;;;5012389;28;20026;-68
2023/04/26 01:02:31;;;;;;;6.18;1.70;;;;;;;;;;5011421;28;20033;-71
2023/04/26 01:04:56;;;;;;;3.03;1.45;;;;;;;;;;5011493;28;20053;-68
2023/04/26 01:07:22;;;;;;;5.90;1.60;;;;;;;;;;5010521;28;20079;-70
2023/04/26 01:09:47;;;;;;;13.60;1.90;;;;;;;;;;5004140;28;20022;-70
2023/04/26 01:12:13;;;;;;;3.65;1.48;;;;;;;;;;5012002;28;20030;-70
2023/04/26 01:14:38;;;;;;;2.88;1.60;;;;;;;;;;5011558;28;20490;-70
2023/04/26 01:17:04;;;;;;;12.00;1.90;;;;;;;;;;5011837;28;20029;-71
2023/04/26 01:19:31;;;;;;;4.22;1.77;;;;;;;;;;5006812;28;20025;-68
2023/04/26 01:21:56;;;;;;;3.63;1.58;;;;;;;;;;5005451;28;20032;-70
2023/04/26 01:24:22;;;;;;;7.85;1.85;;;;;;;;;;5011381;28;20130;-71
2023/04/26 01:26:47;;;;;;;4.78;1.77;;;;;;;;;;5011355;28;20068;-71
2023/04/26 01:29:16;;;;;;;5.25;1.83;;;;;;;;;;5011680;28;20049;-70
2023/04/26 01:31:41;;;;;;;;;;;;;;;;;;5011979;28;20053;-70
2023/04/26 01:34:06;;;;;;;7.63;1.85;;;;;;;;;;5011372;28;19941;-69
2023/04/26 01:36:32;;;;;;;4.03;1.65;;;;;;;;;;5011044;28;20267;-70
2023/04/26 01:38:57;;;;;;;10.25;1.90;;;;;;;;;;5011272;28;20605;-68
2023/04/26 01:41:23;;;;;;;3.90;1.63;;;;;;;;;;5011005;28;20071;-71
2023/04/26 01:43:48;;;;;;;4.82;1.88;;;;;;;;;;5010835;28;20076;-67
2023/04/26 01:46:14;;;;;;;14.48;2.22;;;;;;;;;;5011415;28;20028;-71
2023/04/26 01:48:39;;;;;;;5.35;1.92;;;;;;;;;;5006370;28;20018;-69
2023/04/26 01:51:04;;;;;;;7.18;1.30;;;;;;;;;;5005164;28;20109;-69
2023/04/26 01:53:30;;;;;;;6.28;1.73;;;;;;;;;;5010605;28;20036;-70
2023/04/26 01:55:55;;;;;;;6.95;2.13;;;;;;;;;;5011356;28;20018;-70
2023/04/26 01:58:21;;;;;;;7.07;1.73;;;;;;;;;;5011409;28;20014;-70
2023/04/26 02:00:46;;;;;;;8.35;1.90;;;;;;;;;;5011001;28;20468;-70
2023/04/26 02:03:11;;;;;;;3.40;1.85;;;;;;;;;;5010894;28;20549;-72
2023/04/26 02:05:36;;;;;;;11.00;2.10;;;;;;;;;;5010390;28;20014;-70
2023/04/26 02:08:02;;;;;;;8.30;1.92;;;;;;;;;;5006360;28;20026;-71
2023/04/26 02:10:27;;;;;;;11.93;2.08;;;;;;;;;;5005590;28;20025;-69
2023/04/26 02:12:52;;;;;;;6.93;1.77;;;;;;;;;;5010783;28;20018;-71
2023/04/26 02:15:17;;;;;;;5.05;1.80;;;;;;;;;;5010485;28;20041;-69
2023/04/26 02:17:43;;;;;;;7.03;2.00;;;;;;;;;;5010818;28;20018;-67
2023/04/26 02:20:11;;;;;;;5.15;1.92;;;;;;;;;;5010544;28;20024;-70
2023/04/26 02:22:36;;;;;;;8.83;1.60;;;;;;;;;;5010378;28;20388;-70
2023/04/26 02:25:02;;;;;;;4.05;1.55;;;;;;;;;;5009171;28;20113;-70
2023/04/26 02:27:27;;;;;;;4.68;1.60;;;;;;;;;;5010639;28;20092;-69
2023/04/26 02:29:52;;;;;;;7.45;1.88;;;;;;;;;;5009794;28;20021;-69
2023/04/26 02:32:18;;;;;;;10.35;1.67;;;;;;;;;;5000674;28;20056;-70
2023/04/26 02:34:43;;;;;;;6.40;2.03;;;;;;;;;;5009444;28;20471;-70
2023/04/26 02:37:08;;;;;;;5.07;1.92;;;;;;;;;;5010010;28;20026;-70
2023/04/26 02:39:34;;;;;;;6.90;1.80;;;;;;;;;;5010601;28;20116;-70
2023/04/26 02:41:59;;;;;;;9.32;1.92;;;;;;;;;;5010278;28;20618;-71
2023/04/26 02:44:27;;;;;;;3.95;1.50;;;;;;;;;;5009869;28;20112;-70
2023/04/26 02:46:52;;;;;;;4.95;1.70;;;;;;;;;;5009888;28;20110;-68
2023/04/26 02:49:17;;;;;;;7.07;2.55;;;;;;;;;;5010001;28;20112;-70
2023/04/26 02:51:43;;;;;;;10.00;2.00;;;;;;;;;;5008975;28;20025;-70
2023/04/26 02:54:08;;;;;;;4.35;1.58;;;;;;;;;;5009821;28;20026;-71
2023/04/26 02:56:33;;;;;;;3.83;1.75;;;;;;;;;;5010172;28;20018;-71
2023/04/26 02:58:58;;;;;;;6.07;2.15;;;;;;;;;;5010104;28;20022;-70
2023/04/26 03:01:24;;;;;;;10.30;1.92;;;;;;;;;;5009830;28;20092;-70
2023/04/26 03:03:49;;;;;;;7.47;1.83;;;;;;;;;;5009806;28;20072;-70
2023/04/26 03:06:14;;;;;;;7.63;2.35;;;;;;;;;;5006057;28;20026;-69
2023/04/26 03:08:39;;;;;;;6.20;2.15;;;;;;;;;;5002416;28;20086;-70
2023/04/26 03:11:05;;;;;;;6.78;1.83;;;;;;;;;;5007784;28;20498;-68
2023/04/26 03:13:31;;;;;;;4.45;1.92;;;;;;;;;;5009353;28;20483;-68
2023/04/26 03:15:56;;;;;;;8.50;1.90;;;;;;;;;;5009749;28;20112;-70
2023/04/26 03:18:21;;;;;;;10.43;2.65;;;;;;;;;;5009647;28;20463;-71
2023/04/26 03:20:46;;;;;;;9.20;2.58;;;;;;;;;;5008776;28;20022;-69
2023/04/26 03:23:12;;;;;;;8.77;1.70;;;;;;;;;;5009694;28;20022;-70
2023/04/26 03:25:37;;;;;;;12.57;2.60;;;;;;;;;;5009674;28;20053;-69
2023/04/26 03:28:02;;;;;;;3.88;1.77;;;;;;;;;;5009673;28;20109;-70
2023/04/26 03:30:28;;;;;;;11.63;2.08;;;;;;;;;;5009215;28;20021;-69
2023/04/26 03:32:53;;;;;;;7.43;2.08;;;;;;;;;;5000577;28;20092;-70
2023/04/26 03:35:19;;;;;;;8.52;2.38;;;;;;;;;;5008678;28;20025;-69
2023/04/26 03:37:44;;;;;;;4.35;1.80;;;;;;;;;;5009618;28;20552;-70
2023/04/26 03:40:09;;;;;;;13.40;1.92;;;;;;;;;;5009910;28;20033;-70
2023/04/26 03:42:35;;;;;;;9.43;1.80;;;;;;;;;;5010897;28;20030;-69
2023/04/26 03:45:01;;;;;;;10.48;2.35;;;;;;;;;;5013476;28;20084;-69
2023/04/26 03:47:28;;;;;;;6.03;1.73;;;;;;;;;;5013554;28;20101;-70
2023/04/26 03:49:53;;;;;;;5.90;2.05;;;;;;;;;;5013061;28;20026;-67
2023/04/26 03:52:18;;;;;;;8.18;2.13;;;;;;;;;;5012611;28;20030;-69
2023/04/26 03:54:43;;;;;;;4.20;1.52;;;;;;;;;;5013198;28;20034;-68
2023/04/26 03:57:09;;;;;;;7.18;2.38;;;;;;;;;;5013051;28;20013;-68
2023/04/26 03:59:34;;;;;;;6.68;1.80;;;;;;;;;;5014063;28;20613;-69
2023/04/26 04:01:59;;;;;;;6.97;2.22;;;;;;;;;;5013206;28;20018;-69
2023/04/26 04:04:25;;;;;;;8.40;2.38;;;;;;;;;;5012809;28;20494;-69
2023/04/26 04:06:50;;;;;;;11.63;1.98;;;;;;;;;;5008071;28;20101;-68
2023/04/26 04:09:15;;;;;;;10.15;1.42;;;;;;;;;;5005884;28;20546;-69
2023/04/26 04:11:40;;;;;;;6.45;2.33;;;;;;;;;;5012604;28;20472;-70
2023/04/26 04:14:06;;;;;;;15.73;2.72;;;;;;;;;;5012586;28;20018;-66
2023/04/26 04:16:31;;;;;;;6.90;2.38;;;;;;;;;;5012990;28;20049;-68
2023/04/26 04:18:57;;;;;;;5.95;2.30;;;;;;;;;;5012418;28;20030;-71
2023/04/26 04:21:22;;;;;;;8.55;2.17;;;;;;;;;;5011788;28;20476;-69
2023/04/26 04:23:47;;;;;;;9.90;1.80;;;;;;;;;;5012281;28;20029;-68
2023/04/26 04:26:13;;;;;;;5.22;1.63;;;;;;;;;;5012776;28;20029;-69
2023/04/26 04:28:40;;;;;;;3.38;2.35;;;;;;;;;;5011098;28;20101;-69
2023/04/26 04:31:06;;;;;;;5.93;1.95;;;;;;;;;;5012149;28;20075;-68
2023/04/26 04:33:32;;;;;;;9.88;2.25;;;;;;;;;;5012418;28;20018;-66
2023/04/26 04:35:57;;;;;;;7.60;2.20;;;;;;;;;;5012191;28;20632;-67
2023/04/26 04:38:23;;;;;;;9.38;2.17;;;;;;;;;;5012929;28;20487;-71
2023/04/26 04:40:51;;;;;;;12.65;2.58;;;;;;;;;;5011685;28;20025;-71
2023/04/26 04:43:16;;;;;;;12.23;2.27;;;;;;;;;;5007613;28;20026;-69
2023/04/26 04:45:42;;;;;;;8.25;2.30;;;;;;;;;;5012549;28;20736;-68
2023/04/26 04:48:08;;;;;;;6.75;2.75;;;;;;;;;;5012933;28;20037;-68
2023/04/26 04:50:34;;;;;;;9.35;2.33;;;;;;;;;;5008714;28;20392;-71
2023/04/26 04:52:59;;;;;;;5.90;2.05;;;;;;;;;;5012399;28;20041;-70
2023/04/26 04:55:25;;;;;;;14.82;2.50;;;;;;;;;;5011554;28;20076;-68
2023/04/26 04:57:50;;;;;;;6.60;2.55;;;;;;;;;;5012192;28;20017;-71
2023/04/26 05:00:15;;;;;;;11.98;2.80;;;;;;;;;;5027859;28;20467;-70
2023/04/26 05:02:41;;;;;;;5.43;2.08;;;;;;;;;;5011720;28;20099;-68
2023/04/26 05:05:06;;;;;;;8.25;2.42;;;;;;;;;;5011694;28;20116;-69
2023/04/26 05:07:31;;;;;;;8.48;2.33;;;;;;;;;;4993165;28;21452;-68
2023/04/26 05:09:57;;;;;;;5.18;2.20;;;;;;;;;;4989710;28;20116;-67
2023/04/26 05:12:22;;;;;;;12.20;2.42;;;;;;;;;;4993356;28;20719;-72
2023/04/26 05:14:47;;;;;;;8.60;2.78;;;;;;;;;;4991018;28;20022;-70
2023/04/26 05:17:13;;;;;;;8.90;2.05;;;;;;;;;;4991031;28;20537;-69
2023/04/26 05:19:38;;;;;;;7.13;2.72;;;;;;;;;;4991549;28;20062;-69
2023/04/26 05:22:03;;;;;;;10.60;2.70;;;;;;;;;;4990843;28;20030;-69
2023/04/26 05:24:30;;;;;;;6.78;2.70;;;;;;;;;;4992426;28;20026;-71
2023/04/26 05:26:57;;;;;;;6.35;2.13;;;;;;;;;;4992428;28;20028;-71
2023/04/26 05:29:22;;;;;;;7.20;2.40;;;;;;;;;;4990456;28;20073;-70
2023/04/26 05:31:47;;;;;;;6.85;2.20;;;;;;;;;;4991481;28;21735;-69
2023/04/26 05:34:13;;;;;;;5.60;2.33;;;;;;;;;;4991366;28;20140;-71
2023/04/26 05:36:38;;;;;;;11.70;1.83;;;;;;;;;;4989790;28;21016;-70
2023/04/26 05:39:07;;;;;;;4.72;2.10;;;;;;;;;;4990799;28;20842;-71
2023/04/26 05:41:32;;;;;;;6.55;2.28;;;;;;;;;;4988012;28;20022;-72
2023/04/26 05:43:57;;;;;;;13.07;2.78;;;;;;;;;;4990264;28;20033;-71
2023/04/26 05:46:22;;;;;;;12.68;2.88;;;;;;;;;;4990953;28;20034;-71
2023/04/26 05:48:48;;;;;;;6.15;2.35;;;;;;;;;;4990296;28;20060;-70
2023/04/26 05:51:13;;;;;;;9.57;2.78;;;;;;;;;;4988422;28;20056;-70
2023/04/26 05:53:38;;;;;;;7.03;2.65;;;;;;;;;;5014832;22;20095;-65
2023/04/26 05:56:04;;;;;;;7.25;2.53;;;;;;;;;;5010336;28;20037;-66
2023/04/26 05:58:29;;;;;;;13.48;2.60;;;;;;;;;;5005551;28;20052;-64
2023/04/26 06:00:55;;;;;;;8.55;2.88;;;;;;;;;;5009651;28;20025;-66
2023/04/26 06:03:20;;;;;;;7.22;2.78;;;;;;;;;;5008312;28;20018;-65
2023/04/26 06:05:46;;;;;;;8.38;2.42;;;;;;;;;;5006028;28;20125;-63
2023/04/26 06:08:11;;;;;;;7.65;2.47;;;;;;;;;;5007419;28;20026;-67
2023/04/26 06:10:36;;;;;;;10.80;2.70;;;;;;;;;;5011403;28;20108;-64
2023/04/26 06:13:02;;;;;;;9.00;2.90;;;;;;;;;;5008488;28;20054;-66
2023/04/26 06:15:27;;;;;;;10.18;2.35;;;;;;;;;;5005844;28;20051;-66
2023/04/26 06:17:53;;;;;;;11.85;2.78;;;;;;;;;;5010593;28;21173;-65
2023/04/26 06:20:18;;;;;;;21.00;3.33;;;;;;;;;;5006915;28;20502;-67
2023/04/26 06:22:43;;;;;;;12.25;2.78;;;;;;;;;;5013110;28;20164;-65
2023/04/26 06:25:08;;;;;;;9.80;2.40;;;;;;;;;;5008087;28;21219;-65
2023/04/26 06:27:34;;;;;;;7.38;2.75;;;;;;;;;;5010962;28;21404;-66
2023/04/26 06:29:59;;;;;;;5.65;2.58;;;;;;;;;;5009475;28;20034;-66
2023/04/26 06:32:25;;;;;;;11.05;2.22;;;;;;;;;;5006542;28;20677;-64
2023/04/26 06:34:50;;;;;;;6.28;2.20;;;;;;;;;;5007117;28;20471;-69
2023/04/26 06:37:15;;;;;;;15.00;2.83;;;;;;;;;;5009355;28;20018;-66
2023/04/26 06:39:40;;;;;;;7.63;2.42;;;;;;;;;;5007315;28;20029;-66
2023/04/26 06:42:06;;;;;;;13.45;2.35;;;;;;;;;;5009691;28;20026;-66
2023/04/26 06:44:31;;;;;;;7.90;2.00;;;;;;;;;;5008212;28;20045;-66
2023/04/26 06:46:57;;;;;;;6.43;1.67;;;;;;;;;;5008685;28;20049;-66
2023/04/26 06:49:22;;;;;;;10.95;2.00;;;;;;;;;;5006951;28;20105;-66
2023/04/26 06:51:48;;;;;;;14.15;2.13;;;;;;;;;;5008026;28;20025;-66
2023/04/26 06:54:13;;;;;;;16.77;2.63;;;;;;;;;;5008133;28;20061;-66
2023/04/26 06:56:38;;;;;;;11.88;2.08;;;;;;;;;;5007962;28;20022;-65
2023/04/26 06:59:05;;;;;;;7.10;2.30;;;;;;;;;;5006390;28;20545;-65
2023/04/26 07:01:32;;;;;;;10.40;2.30;;;;;;;;;;5005299;28;20135;-65
2023/04/26 07:04:02;;;;;;;8.98;1.90;;;;;;;;;;5008656;28;20070;-66
2023/04/26 07:06:28;;;;;;;10.50;2.35;;;;;;;;;;5005476;28;20080;-64
2023/04/26 07:08:53;;;;;;;14.63;2.00;;;;;;;;;;5004610;28;20038;-65
2023/04/26 07:11:18;;;;;;;12.45;2.25;;;;;;;;;;5006627;28;20053;-66
2023/04/26 07:13:44;;;;;;;9.88;2.08;;;;;;;;;;5008111;28;20526;-66
2023/04/26 07:16:09;;;;;;;9.48;1.77;;;;;;;;;;5008462;28;21736;-65
2023/04/26 07:18:34;;;;;;;16.70;3.08;;;;;;;;;;5014122;28;20022;-66
2023/04/26 07:20:59;;;;;;;7.28;2.17;;;;;;;;;;5028613;28;20479;-65
2023/04/26 07:23:25;;;;;;;13.85;2.65;;;;;;;;;;5027704;28;20108;-64
2023/04/26 07:25:50;;;;;;;19.05;3.60;;;;;;;;;;5029680;28;20528;-65
2023/04/26 07:28:15;;;;;;;10.70;2.30;;;;;;;;;;5029462;28;20024;-65
2023/04/26 07:30:41;;;;;;;6.90;2.65;;;;;;;;;;5017001;28;20364;-64
2023/04/26 07:33:06;;;;;;;9.45;2.20;;;;;;;;;;5029667;28;20029;-64
2023/04/26 07:35:34;;;;;;;10.93;2.30;;;;;;;;;;5029131;28;20033;-64
2023/04/26 07:37:59;;;;;;;8.52;2.13;;;;;;;;;;5028874;28;20029;-64
2023/04/26 07:40:25;;;;;;;8.50;2.55;;;;;;;;;;5018566;28;20026;-65
2023/04/26 07:42:50;;;;;;;7.32;2.05;;;;;;;;;;5029243;28;20025;-62
2023/04/26 07:45:15;;;;;;;6.70;1.80;;;;;;;;;;5029345;28;20021;-65
2023/04/26 07:47:40;;;;;;;8.35;1.88;;;;;;;;;;5029471;28;20434;-64
2023/04/26 07:50:06;;;;;;;9.32;1.98;;;;;;;;;;5029329;28;20028;-65
2023/04/26 07:52:31;;;;;;;8.93;2.08;;;;;;;;;;5029497;28;20036;-65
2023/04/26 07:54:58;;;;;;;10.57;2.05;;;;;;;;;;5029776;28;20041;-65
2023/04/26 07:57:23;;;;;;;4.90;1.98;;;;;;;;;;5026859;28;20087;-64
2023/04/26 07:59:48;;;;;;;5.30;1.90;;;;;;;;;;5029623;28;20099;-67
2023/04/26 08:02:13;;;;;;;6.63;1.77;;;;;;;;;;5029599;28;20103;-67
2023/04/26 08:04:46;;;;;;;7.18;1.60;;;;;;;;;;5029846;28;20036;-65
2023/04/26 08:07:11;;;;;;;4.97;1.50;;;;;;;;;;5021894;28;20121;-65
2023/04/26 08:09:36;;;;;;;9.57;1.58;;;;;;;;;;5022522;28;20029;-66
2023/04/26 08:12:03;;;;;;;9.75;1.63;;;;;;;;;;5030422;28;20021;-64
2023/04/26 08:14:29;;;;;;;8.85;1.77;;;;;;;;;;5029887;28;20037;-67
2023/04/26 08:16:54;;;;;;;7.38;1.95;;;;;;;;;;5030323;28;20529;-66
2023/04/26 08:19:20;;;;;;;5.07;1.55;;;;;;;;;;5029398;28;20030;-66
2023/04/26 08:21:45;;;;;;;12.45;1.85;;;;;;;;;;5029838;28;20029;-66
2023/04/26 08:24:10;;;;;;;10.15;2.03;;;;;;;;;;5028696;28;20028;-63
2023/04/26 08:26:36;;;;;;;11.60;2.17;;;;;;;;;;5029181;28;20022;-66
2023/04/26 08:29:01;;;;;;;7.45;2.10;;;;;;;;;;5030698;28;20486;-66
2023/04/26 08:31:26;;;;;;;6.95;1.83;;;;;;;;;;5015045;28;20606;-65
2023/04/26 08:33:51;;;;;;;14.35;1.92;;;;;;;;;;5027557;28;20048;-64
2023/04/26 08:36:17;;;;;;;8.48;1.80;;;;;;;;;;5033020;28;20018;-66
2023/04/26 08:38:42;;;;;;;11.25;2.35;;;;;;;;;;5019739;28;20071;-66
2023/04/26 08:41:12;;;;;;;11.02;2.42;;;;;;;;;;5032590;28;20034;-67
2023/04/26 08:43:38;;;;;;;5.60;1.80;;;;;;;;;;5028638;28;20022;-66
2023/04/26 08:46:06;;;;;;;7.20;1.92;;;;;;;;;;5032153;28;20079;-65
2023/04/26 08:48:33;;;;;;;10.77;2.42;;;;;;;;;;5032109;28;20092;-63
2023/04/26 08:50:59;;;;;;;10.45;2.63;;;;;;;;;;5031982;28;20101;-66
2023/04/26 08:53:24;;;;;;;8.60;1.77;;;;;;;;;;5031046;28;20064;-66
2023/04/26 08:55:49;;;;;;;20.65;2.63;;;;;;;;;;5031907;28;20053;-63
2023/04/26 08:58:16;;;;;;;15.70;2.30;;;;;;;;;;5032177;28;20018;-64
2023/04/26 09:00:45;;;;;;;10.20;1.63;;;;;;;;;;5031822;28;20113;-63
2023/04/26 09:03:10;;;;;;;4.38;1.73;;;;;;;;;;5021501;28;20028;-65
2023/04/26 09:05:36;;;;;;;6.18;1.73;;;;;;;;;;5015299;28;20037;-66
2023/04/26 09:08:04;;;;;;;10.75;2.25;;;;;;;;;;5028094;28;20111;-66
2023/04/26 09:10:31;;;;;;;12.73;2.03;;;;;;;;;;5030823;28;20108;-66
2023/04/26 09:12:56;;;;;;;6.25;1.90;;;;;;;;;;5032033;28;20028;-64
2023/04/26 09:15:22;;;;;;;6.22;1.63;;;;;;;;;;5031404;28;20021;-66
2023/04/26 09:17:48;;;;;;;23.25;2.78;;;;;;;;;;5032315;28;20013;-65
2023/04/26 09:20:17;;;;;;;5.85;1.98;;;;;;;;;;5032128;28;20079;-67
2023/04/26 09:22:42;;;;;;;6.13;1.92;;;;;;;;;;5031570;28;20106;-66
2023/04/26 09:25:07;;;;;;;8.43;2.20;;;;;;;;;;5024974;28;20105;-66
2023/04/26 09:27:40;;;;;;;5.65;1.85;;;;;;;;;;5024717;28;20060;-64
2023/04/26 09:30:06;;;;;;;8.30;1.90;;;;;;;;;;5029384;28;20052;-66
2023/04/26 09:32:47;;;;;;;5.70;1.58;;;;;;;;;;5023251;28;20045;-64
2023/04/26 09:35:32;;;;;;;6.05;2.08;;;;;;;;;;5025595;28;20022;-64
2023/04/26 09:37:58;;;;;;;6.55;1.50;;;;;;;;;;5029946;28;20025;-65
2023/04/26 09:40:24;;;;;;;5.40;1.70;;;;;;;;;;5032463;28;20028;-66
2023/04/26 09:43:03;;;;;;;6.95;2.33;;;;;;;;;;5034824;28;20100;-65
2023/04/26 09:45:30;;;;;;;9.82;2.25;;;;;;;;;;5032479;28;20122;-65
2023/04/26 09:48:15;;;;;;;7.55;2.13;;;;;;;;;;5033260;28;20108;-64
2023/04/26 09:50:41;;;;;;;6.55;1.88;;;;;;;;;;5030685;28;20107;-66
2023/04/26 09:53:06;;;;;;;15.50;2.03;;;;;;;;;;5024491;28;20049;-63
2023/04/26 09:55:32;;;;;;;9.38;2.55;;;;;;;;;;5028393;28;20108;-61
2023/04/26 09:57:59;;;;;;;10.38;2.72;;;;;;;;;;5030732;28;20037;-65
2023/04/26 10:00:25;;;;;;;7.60;1.92;;;;;;;;;;5030498;28;20450;-65
2023/04/26 10:02:51;;;;;;;8.10;2.40;;;;;;;;;;5031049;28;20100;-65
2023/04/26 10:05:17;;;;;;;8.40;1.73;;;;;;;;;;5028902;28;20459;-65
2023/04/26 10:07:44;;;;;;;11.73;1.88;;;;;;;;;;5030781;28;20040;-63
2023/04/26 10:10:10;;;;;;;11.45;1.95;;;;;;;;;;5017308;28;20017;-64
2023/04/26 10:12:36;;;;;;;4.65;1.55;;;;;;;;;;5026522;28;20020;-65
2023/04/26 10:15:05;;;;;;;10.50;1.77;;;;;;;;;;5024733;28;20021;-65
2023/04/26 10:17:31;;;;;;;6.18;1.33;;;;;;;;;;5026531;28;20081;-63
2023/04/26 10:19:57;;;;;;;13.07;2.20;;;;;;;;;;5025971;28;20026;-65
2023/04/26 10:22:24;;;;;;;9.70;1.80;;;;;;;;;;5020759;28;20022;-63
2023/04/26 10:24:50;;;;;;;9.68;2.10;;;;;;;;;;5025402;28;20438;-65
2023/04/26 10:27:16;;;;;;;9.60;1.83;;;;;;;;;;5030171;28;20029;-65
2023/04/26 10:29:53;;;;;;;10.40;2.20;;;;;;;;;;5027494;28;20060;-65
2023/04/26 10:32:19;;;;;;;5.78;1.63;;;;;;;;;;5028646;28;20025;-66
2023/04/26 10:35:04;;;;;;;6.47;1.73;;;;;;;;;;5028971;28;20036;-66
2023/04/26 10:37:29;;;;;;;10.73;1.95;;;;;;;;;;5029843;28;20549;-66
2023/04/26 10:40:15;;;;;;;3.63;1.48;;;;;;;;;;5029880;28;20029;-66
2023/04/26 10:42:40;;;;;;;14.50;2.20;;;;;;;;;;5017736;28;20025;-65
2023/04/26 10:45:24;;;;;;;13.77;2.17;;;;;;;;;;5025864;28;20041;-65
2023/04/26 10:47:50;;;;;;;3.95;1.55;;;;;;;;;;5030026;28;20071;-65
2023/04/26 10:50:15;;;;;;;11.82;2.40;;;;;;;;;;5030463;28;20021;-67
2023/04/26 10:52:59;;;;;;;5.75;1.70;;;;;;;;;;5028306;28;20071;-65
2023/04/26 10:55:42;;;;;;;9.43;2.40;;;;;;;;;;5024307;28;20437;-64
2023/04/26 10:58:29;;;;;;;11.20;1.90;;;;;;;;;;5028968;28;20037;-66
2023/04/26 11:01:03;;;;;;;6.90;1.77;;;;;;;;;;5029686;28;20053;-65
2023/04/26 11:03:29;;;;;;;6.22;1.90;;;;;;;;;;5029272;28;20023;-67
2023/04/26 11:05:54;;;;;;;10.55;2.00;;;;;;;;;;5028821;28;20100;-67
2023/04/26 11:08:23;;;;;;;12.02;2.60;;;;;;;;;;5023747;28;20109;-63
2023/04/26 11:10:49;;;;;;;;;;;;;;;;;;5029932;28;20021;-65
2023/04/26 11:13:15;;;;;;;8.80;1.80;;;;;;;;;;5030166;28;19912;-66
2023/04/26 11:15:41;;;;;;;7.55;1.90;;;;;;;;;;5029675;28;20018;-65
2023/04/26 11:18:06;;;;;;;8.10;1.75;;;;;;;;;;5029776;28;20091;-65
2023/04/26 11:20:32;;;;;;;10.55;2.13;;;;;;;;;;5029433;28;20483;-63
2023/04/26 11:22:58;;;;;;;11.95;2.28;;;;;;;;;;5029429;28;20017;-63
2023/04/26 11:25:24;;;;;;;14.40;2.25;;;;;;;;;;5029109;28;20033;-66
2023/04/26 11:27:49;;;;;;;9.82;1.65;;;;;;;;;;5029336;28;20026;-66
2023/04/26 11:30:17;;;;;;;8.32;2.45;;;;;;;;;;5018787;28;20026;-65
2023/04/26 11:32:44;;;;;;;2.50;1.40;;;;;;;;;;5029523;28;20032;-65
2023/04/26 11:35:10;;;;;;;5.50;1.67;;;;;;;;;;5015413;28;20488;-63
2023/04/26 11:37:35;;;;;;;6.75;1.77;;;;;;;;;;5028346;28;20096;-65
2023/04/26 11:40:00;;;;;;;8.68;1.90;;;;;;;;;;5028719;28;20013;-66
2023/04/26 11:42:26;;;;;;;11.65;2.13;;;;;;;;;;5029472;28;20101;-64
2023/04/26 11:44:51;;;;;;;5.20;1.50;;;;;;;;;;5029057;28;20071;-66
2023/04/26 11:47:17;;;;;;;9.10;1.98;;;;;;;;;;5029575;28;20017;-62
2023/04/26 11:49:42;;;;;;;9.32;1.95;;;;;;;;;;5027096;28;20394;-64
2023/04/26 11:52:08;;;;;;;9.70;1.60;;;;;;;;;;5023233;28;20472;-65
2023/04/26 11:54:36;;;;;;;4.65;1.50;;;;;;;;;;5031039;22;20045;-68
2023/04/26 11:57:15;;;;;;;10.18;1.83;;;;;;;;;;5017272;28;20487;-67
2023/04/26 11:59:40;;;;;;;7.72;1.75;;;;;;;;;;5009136;28;20507;-67
2023/04/26 12:02:09;;;;;;;7.97;1.73;;;;;;;;;;5009657;28;20025;-70
2023/04/26 12:04:34;;;;;;;7.38;2.72;;;;;;;;;;5023632;28;20094;-66
2023/04/26 12:07:02;;;;;;;7.78;2.22;;;;;;;;;;5009350;28;20080;-66
2023/04/26 12:09:28;;;;;;;6.00;1.50;;;;;;;;;;5010275;28;20422;-68
2023/04/26 12:12:01;;;;;;;2.95;1.48;;;;;;;;;;5013651;28;20046;-66
2023/04/26 12:14:46;;;;;;;8.02;2.00;;;;;;;;;;5016842;28;20028;-68
2023/04/26 12:17:13;;;;;;;6.03;1.85;;;;;;;;;;5012255;28;20018;-68
2023/04/26 12:19:39;;;;;;;5.60;1.60;;;;;;;;;;5015136;28;20065;-71
2023/04/26 12:22:05;;;;;;;5.15;1.95;;;;;;;;;;4999164;28;20483;-68
2023/04/26 12:24:37;;;;;;;6.05;2.03;;;;;;;;;;5008583;28;20029;-69
2023/04/26 12:27:05;;;;;;;11.02;2.33;;;;;;;;;;5000065;28;20050;-68
2023/04/26 12:29:30;;;;;;;12.45;2.40;;;;;;;;;;5012683;28;20022;-71
2023/04/26 12:31:56;;;;;;;6.82;2.03;;;;;;;;;;5012561;28;20014;-70
2023/04/26 12:34:21;;;;;;;9.35;3.05;;;;;;;;;;5024389;28;20026;-69
2023/04/26 12:36:47;;;;;;;9.43;2.28;;;;;;;;;;5013078;28;20153;-69
2023/04/26 12:39:14;;;;;;;4.53;1.73;;;;;;;;;;5012294;28;20038;-70
2023/04/26 12:41:40;;;;;;;6.72;2.08;;;;;;;;;;5012339;28;20026;-68
2023/04/26 12:44:05;;;;;;;8.77;1.75;;;;;;;;;;5011685;28;20075;-68
2023/04/26 12:46:31;;;;;;;12.40;1.50;;;;;;;;;;5012099;28;20021;-69
2023/04/26 12:48:56;;;;;;;8.05;1.70;;;;;;;;;;5006106;28;20021;-70
2023/04/26 12:51:21;;;;;;;6.78;1.58;;;;;;;;;;5011506;28;20494;-68
2023/04/26 12:53:46;;;;;;;6.60;1.50;;;;;;;;;;5011560;28;20103;-70
2023/04/26 12:56:12;;;;;;;3.67;1.55;;;;;;;;;;5021135;28;20029;-68
2023/04/26 12:58:37;;;;;;;4.25;1.33;;;;;;;;;;5009557;28;20029;-69
2023/04/26 13:01:02;;;;;;;10.05;1.83;;;;;;;;;;5010953;28;20093;-70
2023/04/26 13:03:27;;;;;;;7.65;1.50;;;;;;;;;;5020549;28;20481;-68
2023/04/26 13:05:55;;;;;;;7.97;1.90;;;;;;;;;;5006941;28;20531;-69
2023/04/26 13:08:21;;;;;;;4.87;1.80;;;;;;;;;;5006675;28;20023;-70
2023/04/26 13:10:46;;;;;;;5.82;1.50;;;;;;;;;;5013756;28;20036;-69
2023/04/26 13:13:12;;;;;;;9.05;1.75;;;;;;;;;;5010850;28;20022;-69
2023/04/26 13:15:37;;;;;;;6.53;1.80;;;;;;;;;;5011334;28;20081;-69
2023/04/26 13:18:03;;;;;;;12.15;2.20;;;;;;;;;;5011917;28;20010;-68
2023/04/26 13:20:28;;;;;;;8.45;1.90;;;;;;;;;;5010807;28;20026;-69
2023/04/26 13:22:53;;;;;;;9.82;2.10;;;;;;;;;;5002058;28;20135;-69
2023/04/26 13:25:18;;;;;;;5.93;1.75;;;;;;;;;;5016838;28;20021;-69
2023/04/26 13:27:44;;;;;;;12.77;1.98;;;;;;;;;;5013389;28;20065;-68
2023/04/26 13:30:10;;;;;;;4.88;1.45;;;;;;;;;;5022084;28;20017;-68
2023/04/26 13:32:35;;;;;;;10.32;1.50;;;;;;;;;;5013185;28;20068;-68
2023/04/26 13:35:00;;;;;;;10.13;1.95;;;;;;;;;;5009380;28;20054;-68
2023/04/26 13:37:26;;;;;;;9.13;1.70;;;;;;;;;;5011189;28;20026;-69
2023/04/26 13:39:52;;;;;;;9.60;1.95;;;;;;;;;;5012735;28;20029;-69
2023/04/26 13:42:18;;;;;;;6.57;1.90;;;;;;;;;;5018642;28;20053;-69
2023/04/26 13:44:43;;;;;;;3.90;1.42;;;;;;;;;;5020933;28;20046;-68
2023/04/26 13:47:08;;;;;;;5.43;1.60;;;;;;;;;;5011310;28;20083;-69
2023/04/26 13:49:34;;;;;;;4.45;1.52;;;;;;;;;;5021196;28;20025;-69
2023/04/26 13:51:59;;;;;;;6.57;2.10;;;;;;;;;;5018149;28;20498;-71
2023/04/26 13:54:27;;;;;;;6.30;1.75;;;;;;;;;;5020591;28;20022;-70
2023/04/26 13:56:52;;;;;;;7.10;1.60;;;;;;;;;;5010975;28;20045;-68
2023/04/26 13:59:18;;;;;;;9.18;1.75;;;;;;;;;;5008964;28;20341;-69
2023/04/26 14:01:43;;;;;;;10.02;1.92;;;;;;;;;;5000412;28;20026;-71
2023/04/26 14:04:08;;;;;;;7.35;1.90;;;;;;;;;;5010334;28;20499;-71
2023/04/26 14:06:34;;;;;;;5.75;1.60;;;;;;;;;;5013206;28;20041;-68
2023/04/26 14:09:00;;;;;;;7.93;1.88;;;;;;;;;;5010683;28;20066;-68
2023/04/26 14:11:25;;;;;;;9.13;1.60;;;;;;;;;;5016613;28;20487;-67
2023/04/26 14:13:54;;;;;;;5.05;1.40;;;;;;;;;;5001139;28;20029;-69
2023/04/26 14:16:20;;;;;;;7.13;1.77;;;;;;;;;;5009343;28;20018;-68
2023/04/26 14:18:46;;;;;;;8.32;2.05;;;;;;;;;;5005832;28;20045;-71
2023/04/26 14:21:11;;;;;;;4.47;1.60;;;;;;;;;;5002382;28;20029;-67
2023/04/26 14:23:37;;;;;;;8.60;2.67;;;;;;;;;;5010213;28;20426;-69
2023/04/26 14:26:02;;;;;;;5.28;2.05;;;;;;;;;;4998760;28;20070;-68
2023/04/26 14:28:27;;;;;;;10.40;1.90;;;;;;;;;;5009762;28;20483;-70
2023/04/26 14:30:53;;;;;;;5.88;2.05;;;;;;;;;;5010387;28;20075;-70
2023/04/26 14:33:18;;;;;;;4.78;1.75;;;;;;;;;;5008652;28;20151;-71
2023/04/26 14:35:43;;;;;;;8.43;1.60;;;;;;;;;;5011674;28;20435;-69